sensor_id;sensor_type;location;lat;lon;timestamp;temperature;humidity
78886;DHT22;68269;52.514;5.722;2023-05-20T00:01:06;13.90;57.80
78886;DHT22;68269;52.514;5.722;2023-05-20T00:03:35;13.80;57.80
78886;DHT22;68269;52.514;5.722;2023-05-20T00:06:07;13.70;57.90
78886;DHT22;68269;52.514;5.722;2023-05-20T00:08:36;13.80;57.90
78886;DHT22;68269;52.514;5.722;2023-05-20T00:11:05;13.70;58.00
78886;DHT22;68269;52.514;5.722;2023-05-20T00:13:35;13.70;58.00
78886;DHT22;68269;52.514;5.722;2023-05-20T00:16:04;13.70;58.10
78886;DHT22;68269;52.514;5.722;2023-05-20T00:18:34;13.70;58.10
78886;DHT22;68269;52.514;5.722;2023-05-20T00:21:06;13.60;58.10
78886;DHT22;68269;52.514;5.722;2023-05-20T00:23:35;13.60;58.20
78886;DHT22;68269;52.514;5.722;2023-05-20T00:26:04;13.60;58.20
78886;DHT22;68269;52.514;5.722;2023-05-20T00:28:34;13.60;58.30
78886;DHT22;68269;52.514;5.722;2023-05-20T00:31:03;13.60;58.30
78886;DHT22;68269;52.514;5.722;2023-05-20T00:33:33;13.60;58.30
78886;DHT22;68269;52.514;5.722;2023-05-20T00:36:06;13.60;58.30
78886;DHT22;68269;52.514;5.722;2023-05-20T00:38:35;13.50;58.40
78886;DHT22;68269;52.514;5.722;2023-05-20T00:41:04;13.50;58.50
78886;DHT22;68269;52.514;5.722;2023-05-20T00:43:34;13.50;58.50
78886;DHT22;68269;52.514;5.722;2023-05-20T00:46:04;13.50;58.60
78886;DHT22;68269;52.514;5.722;2023-05-20T00:48:40;13.50;58.60
78886;DHT22;68269;52.514;5.722;2023-05-20T00:51:13;13.50;58.70
78886;DHT22;68269;52.514;5.722;2023-05-20T00:53:43;13.50;58.70
78886;DHT22;68269;52.514;5.722;2023-05-20T00:56:12;13.50;58.50
78886;DHT22;68269;52.514;5.722;2023-05-20T00:58:42;13.40;58.50
78886;DHT22;68269;52.514;5.722;2023-05-20T01:01:11;13.40;58.60
78886;DHT22;68269;52.514;5.722;2023-05-20T01:03:41;13.40;58.60
78886;DHT22;68269;52.514;5.722;2023-05-20T01:06:13;13.30;58.70
78886;DHT22;68269;52.514;5.722;2023-05-20T01:08:42;13.30;58.80
78886;DHT22;68269;52.514;5.722;2023-05-20T01:11:15;13.30;58.90
78886;DHT22;68269;52.514;5.722;2023-05-20T01:13:49;13.30;58.90
78886;DHT22;68269;52.514;5.722;2023-05-20T01:16:19;13.30;59.00
78886;DHT22;68269;52.514;5.722;2023-05-20T01:18:54;13.30;59.00
78886;DHT22;68269;52.514;5.722;2023-05-20T01:21:26;13.30;59.00
78886;DHT22;68269;52.514;5.722;2023-05-20T01:24:01;13.30;59.10
78886;DHT22;68269;52.514;5.722;2023-05-20T01:26:33;13.30;59.10
78886;DHT22;68269;52.514;5.722;2023-05-20T01:29:04;13.30;59.20
78886;DHT22;68269;52.514;5.722;2023-05-20T01:31:35;13.30;59.20
78886;DHT22;68269;52.514;5.722;2023-05-20T01:34:06;13.30;59.30
78886;DHT22;68269;52.514;5.722;2023-05-20T01:36:36;13.30;59.40
78886;DHT22;68269;52.514;5.722;2023-05-20T01:39:09;13.30;59.40
78886;DHT22;68269;52.514;5.722;2023-05-20T01:41:40;13.10;59.50
78886;DHT22;68269;52.514;5.722;2023-05-20T01:44:09;13.10;59.50
78886;DHT22;68269;52.514;5.722;2023-05-20T01:46:39;13.10;59.60
78886;DHT22;68269;52.514;5.722;2023-05-20T01:49:08;13.10;59.60
78886;DHT22;68269;52.514;5.722;2023-05-20T01:51:37;13.10;59.70
78886;DHT22;68269;52.514;5.722;2023-05-20T01:54:09;13.10;59.70
78886;DHT22;68269;52.514;5.722;2023-05-20T01:56:39;13.10;59.80
78886;DHT22;68269;52.514;5.722;2023-05-20T01:59:08;13.00;59.80
78886;DHT22;68269;52.514;5.722;2023-05-20T02:01:39;13.00;59.90
78886;DHT22;68269;52.514;5.722;2023-05-20T02:04:08;13.00;59.90
78886;DHT22;68269;52.514;5.722;2023-05-20T02:06:37;13.00;60.00
78886;DHT22;68269;52.514;5.722;2023-05-20T02:09:09;13.00;60.00
78886;DHT22;68269;52.514;5.722;2023-05-20T02:11:39;12.90;60.00
78886;DHT22;68269;52.514;5.722;2023-05-20T02:14:08;12.90;60.00
78886;DHT22;68269;52.514;5.722;2023-05-20T02:16:37;12.90;60.10
78886;DHT22;68269;52.514;5.722;2023-05-20T02:19:07;12.80;60.10
78886;DHT22;68269;52.514;5.722;2023-05-20T02:21:38;12.80;60.20
78886;DHT22;68269;52.514;5.722;2023-05-20T02:24:12;12.80;60.20
78886;DHT22;68269;52.514;5.722;2023-05-20T02:26:41;12.80;60.20
78886;DHT22;68269;52.514;5.722;2023-05-20T02:29:11;12.80;60.30
78886;DHT22;68269;52.514;5.722;2023-05-20T02:31:40;12.80;60.40
78886;DHT22;68269;52.514;5.722;2023-05-20T02:34:09;12.80;60.40
78886;DHT22;68269;52.514;5.722;2023-05-20T02:36:38;12.80;60.40
78886;DHT22;68269;52.514;5.722;2023-05-20T02:39:08;12.80;60.40
78886;DHT22;68269;52.514;5.722;2023-05-20T02:41:40;12.90;60.50
78886;DHT22;68269;52.514;5.722;2023-05-20T02:44:09;12.90;60.50
78886;DHT22;68269;52.514;5.722;2023-05-20T02:46:39;12.90;60.50
78886;DHT22;68269;52.514;5.722;2023-05-20T02:49:08;12.90;60.50
78886;DHT22;68269;52.514;5.722;2023-05-20T02:51:38;12.90;60.50
78886;DHT22;68269;52.514;5.722;2023-05-20T02:54:07;12.90;60.50
78886;DHT22;68269;52.514;5.722;2023-05-20T02:56:39;12.90;60.50
78886;DHT22;68269;52.514;5.722;2023-05-20T02:59:09;12.90;60.50
78886;DHT22;68269;52.514;5.722;2023-05-20T03:01:38;12.90;60.60
78886;DHT22;68269;52.514;5.722;2023-05-20T03:04:08;12.80;60.70
78886;DHT22;68269;52.514;5.722;2023-05-20T03:06:38;12.80;60.80
78886;DHT22;68269;52.514;5.722;2023-05-20T03:09:09;12.70;60.80
78886;DHT22;68269;52.514;5.722;2023-05-20T03:11:42;12.70;60.80
78886;DHT22;68269;52.514;5.722;2023-05-20T03:14:11;12.70;60.90
78886;DHT22;68269;52.514;5.722;2023-05-20T03:16:41;12.60;60.90
78886;DHT22;68269;52.514;5.722;2023-05-20T03:19:10;12.50;60.90
78886;DHT22;68269;52.514;5.722;2023-05-20T03:21:39;12.50;61.00
78886;DHT22;68269;52.514;5.722;2023-05-20T03:24:09;12.50;61.00
78886;DHT22;68269;52.514;5.722;2023-05-20T03:26:41;12.50;61.00
78886;DHT22;68269;52.514;5.722;2023-05-20T03:29:12;12.50;61.10
78886;DHT22;68269;52.514;5.722;2023-05-20T03:31:41;12.50;61.00
78886;DHT22;68269;52.514;5.722;2023-05-20T03:34:10;12.50;61.10
78886;DHT22;68269;52.514;5.722;2023-05-20T03:36:40;12.50;61.10
78886;DHT22;68269;52.514;5.722;2023-05-20T03:39:09;12.60;61.10
78886;DHT22;68269;52.514;5.722;2023-05-20T03:41:41;12.60;61.10
78886;DHT22;68269;52.514;5.722;2023-05-20T03:44:11;12.70;61.10
78886;DHT22;68269;52.514;5.722;2023-05-20T03:46:40;12.70;61.10
78886;DHT22;68269;52.514;5.722;2023-05-20T03:49:09;12.70;61.10
78886;DHT22;68269;52.514;5.722;2023-05-20T03:51:39;12.80;61.20
78886;DHT22;68269;52.514;5.722;2023-05-20T03:54:11;12.80;61.10
78886;DHT22;68269;52.514;5.722;2023-05-20T03:56:44;12.80;61.20
78886;DHT22;68269;52.514;5.722;2023-05-20T03:59:15;12.80;61.20
78886;DHT22;68269;52.514;5.722;2023-05-20T04:01:45;12.80;61.20
78886;DHT22;68269;52.514;5.722;2023-05-20T04:04:14;12.90;61.30
78886;DHT22;68269;52.514;5.722;2023-05-20T04:06:43;12.90;61.20
78886;DHT22;68269;52.514;5.722;2023-05-20T04:09:12;12.90;61.20
78886;DHT22;68269;52.514;5.722;2023-05-20T04:11:44;13.00;61.30
78886;DHT22;68269;52.514;5.722;2023-05-20T04:14:14;13.00;61.30
78886;DHT22;68269;52.514;5.722;2023-05-20T04:16:43;13.00;61.30
78886;DHT22;68269;52.514;5.722;2023-05-20T04:19:12;13.00;61.30
78886;DHT22;68269;52.514;5.722;2023-05-20T04:21:45;13.10;61.40
78886;DHT22;68269;52.514;5.722;2023-05-20T04:24:14;13.10;61.40
78886;DHT22;68269;52.514;5.722;2023-05-20T04:26:46;13.10;61.40
78886;DHT22;68269;52.514;5.722;2023-05-20T04:29:16;13.10;61.40
78886;DHT22;68269;52.514;5.722;2023-05-20T04:31:46;13.10;61.20
78886;DHT22;68269;52.514;5.722;2023-05-20T04:34:15;13.10;61.30
78886;DHT22;68269;52.514;5.722;2023-05-20T04:36:52;13.10;61.30
78886;DHT22;68269;52.514;5.722;2023-05-20T04:39:23;13.10;61.30
78886;DHT22;68269;52.514;5.722;2023-05-20T04:41:55;13.10;61.40
78886;DHT22;68269;52.514;5.722;2023-05-20T04:44:25;13.10;61.40
78886;DHT22;68269;52.514;5.722;2023-05-20T04:46:55;13.20;61.40
78886;DHT22;68269;52.514;5.722;2023-05-20T04:49:25;13.20;61.40
78886;DHT22;68269;52.514;5.722;2023-05-20T04:51:55;13.20;61.40
78886;DHT22;68269;52.514;5.722;2023-05-20T04:54:24;13.20;61.50
78886;DHT22;68269;52.514;5.722;2023-05-20T04:56:56;13.30;61.40
78886;DHT22;68269;52.514;5.722;2023-05-20T04:59:25;13.30;61.40
78886;DHT22;68269;52.514;5.722;2023-05-20T05:01:55;13.40;61.40
78886;DHT22;68269;52.514;5.722;2023-05-20T05:04:24;13.50;61.40
78886;DHT22;68269;52.514;5.722;2023-05-20T05:06:54;13.50;61.40
78886;DHT22;68269;52.514;5.722;2023-05-20T05:09:23;13.50;61.30
78886;DHT22;68269;52.514;5.722;2023-05-20T05:11:55;13.60;61.30
78886;DHT22;68269;52.514;5.722;2023-05-20T05:14:25;13.70;61.30
78886;DHT22;68269;52.514;5.722;2023-05-20T05:16:55;13.70;61.40
78886;DHT22;68269;52.514;5.722;2023-05-20T05:19:24;13.70;61.40
78886;DHT22;68269;52.514;5.722;2023-05-20T05:21:53;13.70;61.40
78886;DHT22;68269;52.514;5.722;2023-05-20T05:24:23;13.70;61.50
78886;DHT22;68269;52.514;5.722;2023-05-20T05:26:52;13.70;61.50
78886;DHT22;68269;52.514;5.722;2023-05-20T05:29:25;13.70;61.50
78886;DHT22;68269;52.514;5.722;2023-05-20T05:31:54;13.60;61.50
78886;DHT22;68269;52.514;5.722;2023-05-20T05:34:23;13.60;61.50
78886;DHT22;68269;52.514;5.722;2023-05-20T05:36:53;13.60;61.60
78886;DHT22;68269;52.514;5.722;2023-05-20T05:39:23;13.60;61.50
78886;DHT22;68269;52.514;5.722;2023-05-20T05:41:52;13.60;61.50
78886;DHT22;68269;52.514;5.722;2023-05-20T05:44:25;13.60;61.50
78886;DHT22;68269;52.514;5.722;2023-05-20T05:46:54;13.70;61.50
78886;DHT22;68269;52.514;5.722;2023-05-20T05:49:23;13.70;61.50
78886;DHT22;68269;52.514;5.722;2023-05-20T05:51:53;13.70;61.40
78886;DHT22;68269;52.514;5.722;2023-05-20T05:54:23;13.70;61.40
78886;DHT22;68269;52.514;5.722;2023-05-20T05:56:53;13.80;61.40
78886;DHT22;68269;52.514;5.722;2023-05-20T05:59:26;13.90;61.30
78886;DHT22;68269;52.514;5.722;2023-05-20T06:01:55;13.90;61.30
78886;DHT22;68269;52.514;5.722;2023-05-20T06:04:24;13.90;61.20
78886;DHT22;68269;52.514;5.722;2023-05-20T06:06:57;13.90;61.20
78886;DHT22;68269;52.514;5.722;2023-05-20T06:09:26;14.00;61.30
78886;DHT22;68269;52.514;5.722;2023-05-20T06:11:55;14.00;61.30
78886;DHT22;68269;52.514;5.722;2023-05-20T06:14:28;14.00;61.20
78886;DHT22;68269;52.514;5.722;2023-05-20T06:16:58;14.10;61.20
78886;DHT22;68269;52.514;5.722;2023-05-20T06:19:27;14.20;61.20
78886;DHT22;68269;52.514;5.722;2023-05-20T06:21:56;14.20;61.00
78886;DHT22;68269;52.514;5.722;2023-05-20T06:24:26;14.20;61.00
78886;DHT22;68269;52.514;5.722;2023-05-20T06:26:55;14.30;60.90
78886;DHT22;68269;52.514;5.722;2023-05-20T06:29:28;14.30;60.90
78886;DHT22;68269;52.514;5.722;2023-05-20T06:31:58;14.40;60.90
78886;DHT22;68269;52.514;5.722;2023-05-20T06:34:27;14.40;60.80
78886;DHT22;68269;52.514;5.722;2023-05-20T06:36:56;14.50;60.70
78886;DHT22;68269;52.514;5.722;2023-05-20T06:39:25;14.60;60.70
78886;DHT22;68269;52.514;5.722;2023-05-20T06:41:55;14.60;60.60
78886;DHT22;68269;52.514;5.722;2023-05-20T06:44:31;14.70;60.50
78886;DHT22;68269;52.514;5.722;2023-05-20T06:47:13;14.70;60.50
78886;DHT22;68269;52.514;5.722;2023-05-20T06:49:45;14.80;60.50
78886;DHT22;68269;52.514;5.722;2023-05-20T06:52:15;14.80;60.40
78886;DHT22;68269;52.514;5.722;2023-05-20T06:54:45;14.90;60.40
78886;DHT22;68269;52.514;5.722;2023-05-20T06:57:15;14.90;60.30
78886;DHT22;68269;52.514;5.722;2023-05-20T06:59:47;15.00;60.30
78886;DHT22;68269;52.514;5.722;2023-05-20T07:02:17;15.00;60.20
78886;DHT22;68269;52.514;5.722;2023-05-20T07:04:47;15.00;60.10
78886;DHT22;68269;52.514;5.722;2023-05-20T07:07:18;15.10;60.10
78886;DHT22;68269;52.514;5.722;2023-05-20T07:09:47;15.20;60.00
78886;DHT22;68269;52.514;5.722;2023-05-20T07:12:16;15.30;60.10
78886;DHT22;68269;52.514;5.722;2023-05-20T07:14:48;15.30;60.00
78886;DHT22;68269;52.514;5.722;2023-05-20T07:17:18;15.40;60.00
78886;DHT22;68269;52.514;5.722;2023-05-20T07:19:47;15.40;59.90
78886;DHT22;68269;52.514;5.722;2023-05-20T07:22:16;15.50;59.90
78886;DHT22;68269;52.514;5.722;2023-05-20T07:25:00;15.60;59.80
78886;DHT22;68269;52.514;5.722;2023-05-20T07:27:30;15.60;59.80
78886;DHT22;68269;52.514;5.722;2023-05-20T07:30:03;15.60;59.70
78886;DHT22;68269;52.514;5.722;2023-05-20T07:32:34;15.70;59.70
78886;DHT22;68269;52.514;5.722;2023-05-20T07:35:06;15.90;59.60
78886;DHT22;68269;52.514;5.722;2023-05-20T07:37:35;16.00;59.40
78886;DHT22;68269;52.514;5.722;2023-05-20T07:40:06;16.20;59.30
78886;DHT22;68269;52.514;5.722;2023-05-20T07:42:37;16.40;59.10
78886;DHT22;68269;52.514;5.722;2023-05-20T07:45:10;16.40;59.00
78886;DHT22;68269;52.514;5.722;2023-05-20T07:47:39;16.50;59.00
78886;DHT22;68269;52.514;5.722;2023-05-20T07:50:09;16.60;58.90
78886;DHT22;68269;52.514;5.722;2023-05-20T07:52:39;16.70;59.00
78886;DHT22;68269;52.514;5.722;2023-05-20T07:55:08;16.70;58.90
78886;DHT22;68269;52.514;5.722;2023-05-20T07:57:38;16.80;58.90
78886;DHT22;68269;52.514;5.722;2023-05-20T08:00:11;16.90;58.80
78886;DHT22;68269;52.514;5.722;2023-05-20T08:02:43;17.00;58.70
78886;DHT22;68269;52.514;5.722;2023-05-20T08:05:18;17.00;58.60
78886;DHT22;68269;52.514;5.722;2023-05-20T08:07:47;17.10;58.50
78886;DHT22;68269;52.514;5.722;2023-05-20T08:10:18;17.20;58.40
78886;DHT22;68269;52.514;5.722;2023-05-20T08:12:48;17.30;58.30
78886;DHT22;68269;52.514;5.722;2023-05-20T08:15:20;17.40;58.30
78886;DHT22;68269;52.514;5.722;2023-05-20T08:17:49;17.50;58.30
78886;DHT22;68269;52.514;5.722;2023-05-20T08:20:19;17.50;58.30
78886;DHT22;68269;52.514;5.722;2023-05-20T08:22:49;17.50;58.30
78886;DHT22;68269;52.514;5.722;2023-05-20T08:25:18;17.60;58.10
78886;DHT22;68269;52.514;5.722;2023-05-20T08:27:50;17.70;58.00
78886;DHT22;68269;52.514;5.722;2023-05-20T08:30:22;17.80;57.90
78886;DHT22;68269;52.514;5.722;2023-05-20T08:32:52;17.80;57.80
78886;DHT22;68269;52.514;5.722;2023-05-20T08:35:21;17.90;57.70
78886;DHT22;68269;52.514;5.722;2023-05-20T08:37:51;18.00;57.60
78886;DHT22;68269;52.514;5.722;2023-05-20T08:40:21;18.00;57.50
78886;DHT22;68269;52.514;5.722;2023-05-20T08:42:51;18.00;57.40
78886;DHT22;68269;52.514;5.722;2023-05-20T08:45:25;18.10;57.40
78886;DHT22;68269;52.514;5.722;2023-05-20T08:48:00;18.20;57.30
78886;DHT22;68269;52.514;5.722;2023-05-20T08:50:30;18.30;57.20
78886;DHT22;68269;52.514;5.722;2023-05-20T08:52:59;18.40;57.20
78886;DHT22;68269;52.514;5.722;2023-05-20T08:55:34;18.40;57.10
78886;DHT22;68269;52.514;5.722;2023-05-20T08:58:04;18.50;56.90
78886;DHT22;68269;52.514;5.722;2023-05-20T09:00:36;18.50;56.90
78886;DHT22;68269;52.514;5.722;2023-05-20T09:03:07;18.60;56.80
78886;DHT22;68269;52.514;5.722;2023-05-20T09:05:36;18.70;56.70
78886;DHT22;68269;52.514;5.722;2023-05-20T09:08:06;18.70;56.60
78886;DHT22;68269;52.514;5.722;2023-05-20T09:10:36;18.80;56.50
78886;DHT22;68269;52.514;5.722;2023-05-20T09:13:07;18.90;56.50
78886;DHT22;68269;52.514;5.722;2023-05-20T09:15:39;19.00;56.40
78886;DHT22;68269;52.514;5.722;2023-05-20T09:18:08;19.10;56.20
78886;DHT22;68269;52.514;5.722;2023-05-20T09:20:38;19.10;56.10
78886;DHT22;68269;52.514;5.722;2023-05-20T09:23:08;19.20;56.10
78886;DHT22;68269;52.514;5.722;2023-05-20T09:25:37;19.20;56.00
78886;DHT22;68269;52.514;5.722;2023-05-20T09:28:07;19.30;55.90
78886;DHT22;68269;52.514;5.722;2023-05-20T09:30:39;19.40;55.80
78886;DHT22;68269;52.514;5.722;2023-05-20T09:33:11;19.50;55.60
78886;DHT22;68269;52.514;5.722;2023-05-20T09:35:41;19.50;55.50
78886;DHT22;68269;52.514;5.722;2023-05-20T09:38:10;19.50;55.50
78886;DHT22;68269;52.514;5.722;2023-05-20T09:40:43;19.60;55.40
78886;DHT22;68269;52.514;5.722;2023-05-20T09:43:14;19.70;55.20
78886;DHT22;68269;52.514;5.722;2023-05-20T09:45:46;19.70;55.20
78886;DHT22;68269;52.514;5.722;2023-05-20T09:48:15;19.70;55.30
78886;DHT22;68269;52.514;5.722;2023-05-20T09:50:45;19.60;55.30
78886;DHT22;68269;52.514;5.722;2023-05-20T09:53:15;19.70;55.10
78886;DHT22;68269;52.514;5.722;2023-05-20T09:55:44;19.70;55.00
78886;DHT22;68269;52.514;5.722;2023-05-20T09:58:14;19.70;54.80
78886;DHT22;68269;52.514;5.722;2023-05-20T10:00:48;19.70;54.70
78886;DHT22;68269;52.514;5.722;2023-05-20T10:03:18;19.70;54.60
78886;DHT22;68269;52.514;5.722;2023-05-20T10:05:59;19.90;54.50
78886;DHT22;68269;52.514;5.722;2023-05-20T10:08:50;20.00;54.40
78886;DHT22;68269;52.514;5.722;2023-05-20T10:11:29;20.00;54.50
78886;DHT22;68269;52.514;5.722;2023-05-20T10:14:23;20.00;54.60
78886;DHT22;68269;52.514;5.722;2023-05-20T10:17:02;19.80;54.70
78886;DHT22;68269;52.514;5.722;2023-05-20T10:19:35;19.70;54.80
78886;DHT22;68269;52.514;5.722;2023-05-20T10:22:06;19.80;54.70
78886;DHT22;68269;52.514;5.722;2023-05-20T10:24:37;20.00;54.40
78886;DHT22;68269;52.514;5.722;2023-05-20T10:27:08;20.20;54.00
78886;DHT22;68269;52.514;5.722;2023-05-20T10:29:43;20.30;53.70
78886;DHT22;68269;52.514;5.722;2023-05-20T10:32:25;20.40;53.40
78886;DHT22;68269;52.514;5.722;2023-05-20T10:34:59;20.60;53.20
78886;DHT22;68269;52.514;5.722;2023-05-20T10:37:31;20.60;53.10
78886;DHT22;68269;52.514;5.722;2023-05-20T10:40:08;20.50;53.20
78886;DHT22;68269;52.514;5.722;2023-05-20T10:42:39;20.50;53.10
78886;DHT22;68269;52.514;5.722;2023-05-20T10:45:09;20.50;53.00
78886;DHT22;68269;52.514;5.722;2023-05-20T10:47:53;20.60;52.90
78886;DHT22;68269;52.514;5.722;2023-05-20T10:50:27;20.50;52.80
78886;DHT22;68269;52.514;5.722;2023-05-20T10:53:02;20.50;52.90
78886;DHT22;68269;52.514;5.722;2023-05-20T10:55:36;20.70;52.60
78886;DHT22;68269;52.514;5.722;2023-05-20T10:58:07;20.90;52.40
78886;DHT22;68269;52.514;5.722;2023-05-20T11:00:38;21.00;52.40
78886;DHT22;68269;52.514;5.722;2023-05-20T11:03:10;21.00;52.30
78886;DHT22;68269;52.514;5.722;2023-05-20T11:05:40;21.00;52.30
78886;DHT22;68269;52.514;5.722;2023-05-20T11:08:09;21.00;52.30
78886;DHT22;68269;52.514;5.722;2023-05-20T11:10:38;20.90;52.40
78886;DHT22;68269;52.514;5.722;2023-05-20T11:13:10;20.80;52.30
78886;DHT22;68269;52.514;5.722;2023-05-20T11:15:41;20.80;52.30
78886;DHT22;68269;52.514;5.722;2023-05-20T11:18:13;21.00;52.10
78886;DHT22;68269;52.514;5.722;2023-05-20T11:20:44;21.30;51.70
78886;DHT22;68269;52.514;5.722;2023-05-20T11:23:14;21.50;51.60
78886;DHT22;68269;52.514;5.722;2023-05-20T11:25:43;21.70;51.50
78886;DHT22;68269;52.514;5.722;2023-05-20T11:28:13;21.80;51.40
78886;DHT22;68269;52.514;5.722;2023-05-20T11:30:43;21.90;51.20
78886;DHT22;68269;52.514;5.722;2023-05-20T11:33:16;22.10;51.20
78886;DHT22;68269;52.514;5.722;2023-05-20T11:35:46;22.10;51.00
78886;DHT22;68269;52.514;5.722;2023-05-20T11:38:16;22.30;50.90
78886;DHT22;68269;52.514;5.722;2023-05-20T11:40:50;22.30;50.90
78886;DHT22;68269;52.514;5.722;2023-05-20T11:43:20;22.40;50.70
78886;DHT22;68269;52.514;5.722;2023-05-20T11:45:53;22.50;50.60
78886;DHT22;68269;52.514;5.722;2023-05-20T11:48:27;22.60;50.50
78886;DHT22;68269;52.514;5.722;2023-05-20T11:50:56;22.70;50.50
78886;DHT22;68269;52.514;5.722;2023-05-20T11:53:25;22.80;50.40
78886;DHT22;68269;52.514;5.722;2023-05-20T11:55:56;22.90;50.40
78886;DHT22;68269;52.514;5.722;2023-05-20T11:58:28;22.90;50.30
78886;DHT22;68269;52.514;5.722;2023-05-20T12:00:58;22.90;50.30
78886;DHT22;68269;52.514;5.722;2023-05-20T12:03:29;23.00;50.10
78886;DHT22;68269;52.514;5.722;2023-05-20T12:06:00;22.80;50.20
78886;DHT22;68269;52.514;5.722;2023-05-20T12:08:29;22.70;50.30
78886;DHT22;68269;52.514;5.722;2023-05-20T12:10:58;22.70;50.20
78886;DHT22;68269;52.514;5.722;2023-05-20T12:13:28;22.80;50.00
78886;DHT22;68269;52.514;5.722;2023-05-20T12:15:57;22.90;50.00
78886;DHT22;68269;52.514;5.722;2023-05-20T12:18:29;23.10;50.00
78886;DHT22;68269;52.514;5.722;2023-05-20T12:20:58;23.20;49.70
78886;DHT22;68269;52.514;5.722;2023-05-20T12:23:27;23.20;49.70
78886;DHT22;68269;52.514;5.722;2023-05-20T12:25:59;23.00;49.80
78886;DHT22;68269;52.514;5.722;2023-05-20T12:28:28;22.90;50.00
78886;DHT22;68269;52.514;5.722;2023-05-20T12:30:58;22.90;49.90
78886;DHT22;68269;52.514;5.722;2023-05-20T12:33:30;23.10;49.80
78886;DHT22;68269;52.514;5.722;2023-05-20T12:35:59;23.00;49.70
78886;DHT22;68269;52.514;5.722;2023-05-20T12:38:29;22.80;49.80
78886;DHT22;68269;52.514;5.722;2023-05-20T12:40:58;22.60;50.00
78886;DHT22;68269;52.514;5.722;2023-05-20T12:43:27;22.30;50.20
78886;DHT22;68269;52.514;5.722;2023-05-20T12:45:57;22.00;50.40
78886;DHT22;68269;52.514;5.722;2023-05-20T12:48:26;22.10;50.30
78886;DHT22;68269;52.514;5.722;2023-05-20T12:50:58;22.50;50.00
78886;DHT22;68269;52.514;5.722;2023-05-20T12:53:27;22.60;49.70
78886;DHT22;68269;52.514;5.722;2023-05-20T12:55:57;22.50;49.90
78886;DHT22;68269;52.514;5.722;2023-05-20T12:58:26;22.50;50.00
78886;DHT22;68269;52.514;5.722;2023-05-20T13:00:55;22.60;49.90
78886;DHT22;68269;52.514;5.722;2023-05-20T13:03:25;22.60;49.90
78886;DHT22;68269;52.514;5.722;2023-05-20T13:05:54;22.50;50.00
78886;DHT22;68269;52.514;5.722;2023-05-20T13:08:27;22.40;50.20
78886;DHT22;68269;52.514;5.722;2023-05-20T13:10:56;22.20;50.10
78886;DHT22;68269;52.514;5.722;2023-05-20T13:13:25;22.00;50.20
78886;DHT22;68269;52.514;5.722;2023-05-20T13:15:55;22.10;50.00
78886;DHT22;68269;52.514;5.722;2023-05-20T13:18:24;22.20;50.00
78886;DHT22;68269;52.514;5.722;2023-05-20T13:20:53;22.10;50.00
78886;DHT22;68269;52.514;5.722;2023-05-20T13:23:22;22.00;50.10
78886;DHT22;68269;52.514;5.722;2023-05-20T13:25:54;21.90;50.10
78886;DHT22;68269;52.514;5.722;2023-05-20T13:28:23;21.80;50.20
78886;DHT22;68269;52.514;5.722;2023-05-20T13:30:53;21.90;50.00
78886;DHT22;68269;52.514;5.722;2023-05-20T13:33:22;22.00;49.80
78886;DHT22;68269;52.514;5.722;2023-05-20T13:35:51;22.30;49.60
78886;DHT22;68269;52.514;5.722;2023-05-20T13:38:21;22.50;49.30
78886;DHT22;68269;52.514;5.722;2023-05-20T13:40:50;22.80;49.10
78886;DHT22;68269;52.514;5.722;2023-05-20T13:43:22;23.00;48.90
78886;DHT22;68269;52.514;5.722;2023-05-20T13:45:51;23.20;48.60
78886;DHT22;68269;52.514;5.722;2023-05-20T13:48:20;23.40;48.50
78886;DHT22;68269;52.514;5.722;2023-05-20T13:50:50;23.50;48.50
78886;DHT22;68269;52.514;5.722;2023-05-20T13:53:19;23.30;48.70
78886;DHT22;68269;52.514;5.722;2023-05-20T13:55:48;23.10;48.90
78886;DHT22;68269;52.514;5.722;2023-05-20T13:58:18;23.00;49.00
78886;DHT22;68269;52.514;5.722;2023-05-20T14:00:50;23.00;49.00
78886;DHT22;68269;52.514;5.722;2023-05-20T14:03:19;22.90;49.00
78886;DHT22;68269;52.514;5.722;2023-05-20T14:05:49;22.60;49.20
78886;DHT22;68269;52.514;5.722;2023-05-20T14:08:18;22.50;49.20
78886;DHT22;68269;52.514;5.722;2023-05-20T14:10:47;22.30;49.20
78886;DHT22;68269;52.514;5.722;2023-05-20T14:13:19;22.20;49.30
78886;DHT22;68269;52.514;5.722;2023-05-20T14:15:52;22.20;49.40
78886;DHT22;68269;52.514;5.722;2023-05-20T14:18:22;22.10;49.40
78886;DHT22;68269;52.514;5.722;2023-05-20T14:20:51;22.30;49.30
78886;DHT22;68269;52.514;5.722;2023-05-20T14:23:21;22.50;48.80
78886;DHT22;68269;52.514;5.722;2023-05-20T14:25:50;22.50;48.70
78886;DHT22;68269;52.514;5.722;2023-05-20T14:28:20;22.50;48.80
78886;DHT22;68269;52.514;5.722;2023-05-20T14:30:51;22.30;49.10
78886;DHT22;68269;52.514;5.722;2023-05-20T14:33:21;22.20;49.30
78886;DHT22;68269;52.514;5.722;2023-05-20T14:35:50;22.10;49.50
78886;DHT22;68269;52.514;5.722;2023-05-20T14:38:19;21.90;49.60
78886;DHT22;68269;52.514;5.722;2023-05-20T14:40:49;21.90;49.70
78886;DHT22;68269;52.514;5.722;2023-05-20T14:43:18;21.80;49.70
78886;DHT22;68269;52.514;5.722;2023-05-20T14:45:48;21.70;49.70
78886;DHT22;68269;52.514;5.722;2023-05-20T14:48:20;21.60;49.70
78886;DHT22;68269;52.514;5.722;2023-05-20T14:50:49;21.60;49.70
78886;DHT22;68269;52.514;5.722;2023-05-20T14:53:18;21.70;49.70
78886;DHT22;68269;52.514;5.722;2023-05-20T14:55:47;21.80;49.60
78886;DHT22;68269;52.514;5.722;2023-05-20T14:58:17;21.90;49.50
78886;DHT22;68269;52.514;5.722;2023-05-20T15:00:46;21.90;49.50
78886;DHT22;68269;52.514;5.722;2023-05-20T15:03:15;21.90;49.50
78886;DHT22;68269;52.514;5.722;2023-05-20T15:05:47;21.90;49.50
78886;DHT22;68269;52.514;5.722;2023-05-20T15:08:16;21.90;49.40
78886;DHT22;68269;52.514;5.722;2023-05-20T15:10:46;21.90;49.50
78886;DHT22;68269;52.514;5.722;2023-05-20T15:13:15;22.00;49.30
78886;DHT22;68269;52.514;5.722;2023-05-20T15:15:44;22.10;49.30
78886;DHT22;68269;52.514;5.722;2023-05-20T15:18:14;22.00;49.30
78886;DHT22;68269;52.514;5.722;2023-05-20T15:20:43;22.00;49.40
78886;DHT22;68269;52.514;5.722;2023-05-20T15:23:15;22.00;49.50
78886;DHT22;68269;52.514;5.722;2023-05-20T15:25:45;22.00;49.40
78886;DHT22;68269;52.514;5.722;2023-05-20T15:28:15;22.00;49.60
78886;DHT22;68269;52.514;5.722;2023-05-20T15:30:45;22.10;49.50
78886;DHT22;68269;52.514;5.722;2023-05-20T15:33:14;22.30;49.40
78886;DHT22;68269;52.514;5.722;2023-05-20T15:35:43;22.60;49.10
78886;DHT22;68269;52.514;5.722;2023-05-20T15:38:15;22.60;49.00
78886;DHT22;68269;52.514;5.722;2023-05-20T15:40:48;22.50;49.10
78886;DHT22;68269;52.514;5.722;2023-05-20T15:43:18;22.30;49.20
78886;DHT22;68269;52.514;5.722;2023-05-20T15:45:47;22.10;49.30
78886;DHT22;68269;52.514;5.722;2023-05-20T15:48:16;22.00;49.40
78886;DHT22;68269;52.514;5.722;2023-05-20T15:50:47;21.90;49.40